createdAt,value
2019-02-10T00:00:58.372Z,59.57
2019-02-10T00:03:32.056Z,75.70
2019-02-10T00:06:07.300Z,89.50
2019-02-10T00:08:40.896Z,59.73
2019-02-10T00:11:14.530Z,76.50
2019-02-10T00:13:48.161Z,77.15
2019-02-10T00:19:01.284Z,74.07
2019-02-10T00:21:36.568Z,63.67
2019-02-10T00:24:10.169Z,65.77
2019-02-10T00:26:49.756Z,65.73
2019-02-10T00:29:24.655Z,59.67
2019-02-10T00:31:58.351Z,65.87
2019-02-10T00:34:31.982Z,67.77
2019-02-10T00:37:05.591Z,74.27
2019-02-10T00:39:39.185Z,71.80
2019-02-10T00:42:12.700Z,56.67
2019-02-10T00:44:46.136Z,63.65
2019-02-10T00:47:19.774Z,52.47
2019-02-10T00:49:53.686Z,52.05
2019-02-10T00:52:27.892Z,56.30
2019-02-10T00:55:01.694Z,59.00
2019-02-10T00:57:36.726Z,43.50
2019-02-10T01:00:11.360Z,42.57
2019-02-10T01:02:45.406Z,57.93
2019-02-10T01:05:19.821Z,49.40
2019-02-10T01:07:54.027Z,59.83
2019-02-10T01:10:29.064Z,60.77
2019-02-10T01:13:03.007Z,69.97
2019-02-10T01:15:37.094Z,67.83
2019-02-10T01:18:10.675Z,71.50
2019-02-10T01:20:45.538Z,70.50
2019-02-10T01:23:19.401Z,64.33
2019-02-10T01:25:53.320Z,66.60
2019-02-10T01:28:26.991Z,74.37
2019-02-10T01:31:23.073Z,75.03
2019-02-10T01:33:59.164Z,85.60
2019-02-10T01:36:32.347Z,82.13
2019-02-10T01:39:07.132Z,85.63
2019-02-10T01:41:40.668Z,76.47
2019-02-10T01:44:16.105Z,75.70
2019-02-10T01:46:50.769Z,71.47
2019-02-10T01:49:24.422Z,83.72
2019-02-10T01:51:58.087Z,92.10
2019-02-10T01:54:31.856Z,79.03
2019-02-10T01:57:06.241Z,76.73
2019-02-10T01:59:39.907Z,65.42
2019-02-10T02:02:13.463Z,59.77
2019-02-10T02:04:46.791Z,54.73
2019-02-10T02:07:20.550Z,50.37
2019-02-10T02:09:55.482Z,68.27
2019-02-10T02:12:29.066Z,59.07
2019-02-10T02:15:02.857Z,62.07
2019-02-10T02:17:55.843Z,63.67
2019-02-10T02:20:29.353Z,73.60
2019-02-10T02:23:03.093Z,68.60
2019-02-10T02:25:36.913Z,62.07
2019-02-10T02:28:12.058Z,68.10
2019-02-10T02:30:46.371Z,68.20
2019-02-10T02:33:20.315Z,75.00
2019-02-10T02:35:54.435Z,73.40
2019-02-10T02:38:28.526Z,64.07
2019-02-10T02:41:02.724Z,71.87
2019-02-10T02:43:37.508Z,70.07
2019-02-10T02:46:13.203Z,72.08
2019-02-10T02:48:48.036Z,61.33
2019-02-10T02:51:23.207Z,52.37
2019-02-10T02:53:58.286Z,59.07
2019-02-10T02:56:37.280Z,60.43
2019-02-10T02:59:11.473Z,62.43
2019-02-10T03:01:46.152Z,59.73
2019-02-10T03:04:20.488Z,59.20
2019-02-10T03:06:57.881Z,63.17
2019-02-10T03:09:32.008Z,75.03
2019-02-10T03:12:08.133Z,77.50
2019-02-10T03:14:42.849Z,69.50
2019-02-10T03:17:17.518Z,59.60
2019-02-10T03:19:52.380Z,86.92
2019-02-10T03:22:27.209Z,85.33
2019-02-10T03:25:05.234Z,66.63
2019-02-10T03:27:40.981Z,78.10
2019-02-10T03:30:16.294Z,84.13
2019-02-10T03:32:50.902Z,75.12
2019-02-10T03:35:27.347Z,79.87
2019-02-10T03:38:01.731Z,84.50
2019-02-10T03:40:36.937Z,79.83
2019-02-10T03:43:11.449Z,80.73
2019-02-10T03:45:47.936Z,74.93
2019-02-10T03:48:22.401Z,77.67
2019-02-10T03:50:56.895Z,77.30
2019-02-10T03:53:31.044Z,77.60
2019-02-10T03:56:07.363Z,87.13
2019-02-10T03:59:07.777Z,93.60
2019-02-10T04:01:42.811Z,90.70
2019-02-10T04:04:19.994Z,106.97
2019-02-10T04:06:55.159Z,113.40
2019-02-10T04:09:32.977Z,113.88
2019-02-10T04:12:10.665Z,116.17
2019-02-10T04:14:43.874Z,118.00
2019-02-10T04:17:22.650Z,126.10
2019-02-10T04:19:59.556Z,124.13
2019-02-10T04:22:35.056Z,127.63
2019-02-10T04:25:10.683Z,129.77
2019-02-10T04:27:47.873Z,119.47
2019-02-10T04:30:24.789Z,116.70
2019-02-10T04:33:00.206Z,99.20
2019-02-10T04:35:35.085Z,101.20
2019-02-10T04:38:09.981Z,103.50
2019-02-10T04:40:44.899Z,107.80
2019-02-10T04:43:20.048Z,97.93
2019-02-10T04:45:54.686Z,84.67
2019-02-10T04:48:31.223Z,79.77
2019-02-10T04:51:08.655Z,78.33
2019-02-10T04:53:53.290Z,82.63
2019-02-10T04:56:28.593Z,73.57
2019-02-10T04:59:06.593Z,67.47
2019-02-10T05:01:42.640Z,69.40
2019-02-10T05:04:17.647Z,78.95
2019-02-10T05:06:53.063Z,82.00
2019-02-10T05:09:27.500Z,79.17
2019-02-10T05:12:03.672Z,78.07
2019-02-10T05:14:37.952Z,71.50
2019-02-10T05:17:12.620Z,75.23
2019-02-10T05:19:48.317Z,77.25
2019-02-10T05:22:22.709Z,80.10
2019-02-10T05:24:56.951Z,87.65
2019-02-10T05:27:32.616Z,81.10
2019-02-10T05:30:08.424Z,87.37
2019-02-10T05:32:44.136Z,94.30
2019-02-10T05:35:17.822Z,81.70
2019-02-10T05:37:52.762Z,79.07
2019-02-10T05:40:26.866Z,74.62
2019-02-10T05:43:01.221Z,93.07
2019-02-10T05:45:35.287Z,81.10
2019-02-10T05:48:11.902Z,75.27
2019-02-10T05:50:46.145Z,91.27
2019-02-10T05:53:20.000Z,97.73
2019-02-10T05:56:13.412Z,69.63
2019-02-10T05:58:47.843Z,84.77
2019-02-10T06:02:03.788Z,83.13
2019-02-10T06:04:40.431Z,97.50
2019-02-10T06:07:21.160Z,105.07
2019-02-10T06:09:55.006Z,90.97
2019-02-10T06:12:46.437Z,89.43
2019-02-10T06:18:20.575Z,89.63
2019-02-10T06:20:54.761Z,79.83
2019-02-10T06:23:28.833Z,84.17
2019-02-10T06:26:03.067Z,81.83
2019-02-10T06:28:37.377Z,79.23
2019-02-10T06:31:11.334Z,73.40
2019-02-10T06:33:45.246Z,76.70
2019-02-10T06:36:19.202Z,82.67
2019-02-10T06:38:55.253Z,95.10
2019-02-10T06:41:30.616Z,84.13
2019-02-10T06:44:04.228Z,79.37
2019-02-10T06:46:39.635Z,75.37
2019-02-10T06:49:14.582Z,73.62
2019-02-10T06:51:49.186Z,80.70
2019-02-10T06:54:23.707Z,74.60
2019-02-10T06:56:57.814Z,69.77
2019-02-10T06:59:31.984Z,60.60
2019-02-10T07:02:06.413Z,75.43
2019-02-10T07:04:41.584Z,86.47
2019-02-10T07:07:15.301Z,76.12
2019-02-10T07:09:48.881Z,70.97
2019-02-10T07:12:50.039Z,63.08
2019-02-10T07:16:15.936Z,62.73
2019-02-10T07:19:42.008Z,70.30
2019-02-10T07:22:47.017Z,84.97
2019-02-10T07:25:42.130Z,77.63
2019-02-10T07:28:23.471Z,89.30
2019-02-10T07:31:05.209Z,78.60
2019-02-10T07:33:58.657Z,95.27
2019-02-10T07:36:45.437Z,87.73
2019-02-10T07:39:31.255Z,88.92
2019-02-10T07:42:17.816Z,86.50
2019-02-10T07:45:09.164Z,90.33
2019-02-10T07:47:57.516Z,103.83
2019-02-10T07:50:55.407Z,86.03
2019-02-10T07:53:38.234Z,104.83
2019-02-10T07:56:38.038Z,108.52
2019-02-10T07:59:35.771Z,104.43
2019-02-10T08:02:21.205Z,114.60
2019-02-10T08:05:14.308Z,120.77
2019-02-10T08:08:10.422Z,99.77
2019-02-10T08:11:06.319Z,122.00
2019-02-10T08:13:51.684Z,109.80
2019-02-10T08:16:46.793Z,117.23
2019-02-10T08:20:06.399Z,135.70
2019-02-10T08:23:11.659Z,115.20
2019-02-10T08:25:57.711Z,114.57
2019-02-10T08:29:08.618Z,109.27
2019-02-10T08:32:08.413Z,114.85
2019-02-10T08:35:03.974Z,120.13
2019-02-10T08:37:50.608Z,128.18
2019-02-10T08:40:53.007Z,146.13
2019-02-10T08:43:48.130Z,152.10
2019-02-10T08:46:51.795Z,148.32
2019-02-10T08:50:06.910Z,157.23
2019-02-10T08:52:58.579Z,144.90
2019-02-10T08:55:35.779Z,167.60
2019-02-10T08:58:15.844Z,150.47
2019-02-10T09:00:50.910Z,174.57
2019-02-10T09:03:26.311Z,166.80
2019-02-10T09:06:08.112Z,178.30
2019-02-10T09:08:46.192Z,175.83
2019-02-10T09:11:24.556Z,177.30
2019-02-10T09:14:02.705Z,165.80
2019-02-10T09:16:38.742Z,175.00
2019-02-10T09:19:17.912Z,183.40
2019-02-10T09:21:54.035Z,187.47
2019-02-10T09:24:32.359Z,185.73
2019-02-10T09:27:08.156Z,179.57
2019-02-10T09:29:49.707Z,183.73
2019-02-10T09:32:25.670Z,182.47
2019-02-10T09:35:06.061Z,182.67
2019-02-10T09:37:41.074Z,179.12
2019-02-10T09:40:19.291Z,193.93
2019-02-10T09:42:57.208Z,179.40
2019-02-10T09:45:32.693Z,192.23
2019-02-10T09:48:12.295Z,197.37
2019-02-10T09:50:51.223Z,184.83
2019-02-10T09:53:30.249Z,189.37
2019-02-10T09:56:06.020Z,191.98
2019-02-10T09:58:41.723Z,203.40
2019-02-10T10:01:17.542Z,183.67
2019-02-10T10:03:53.266Z,205.70
2019-02-10T10:06:32.174Z,200.90
2019-02-10T10:09:18.975Z,205.03
2019-02-10T10:11:51.472Z,213.77
2019-02-10T10:14:30.892Z,229.87
2019-02-10T10:17:03.814Z,205.03
2019-02-10T10:19:56.891Z,225.17
2019-02-10T10:22:31.947Z,209.87
2019-02-10T10:25:12.241Z,214.83
2019-02-10T10:27:47.457Z,213.93
2019-02-10T10:30:29.737Z,215.93
2019-02-10T10:33:13.372Z,223.67
2019-02-10T10:35:50.887Z,210.70
2019-02-10T10:38:27.406Z,205.45
2019-02-10T10:41:05.574Z,220.77
2019-02-10T10:43:41.279Z,228.97
2019-02-10T10:46:20.147Z,222.73
2019-02-10T10:48:58.938Z,214.68
2019-02-10T10:51:39.442Z,225.80
2019-02-10T10:54:21.531Z,221.17
2019-02-10T10:56:57.177Z,228.70
2019-02-10T10:59:33.673Z,222.83
2019-02-10T11:02:10.504Z,248.40
2019-02-10T11:04:46.246Z,216.07
2019-02-10T11:07:31.673Z,244.93
2019-02-10T11:10:05.156Z,232.00
2019-02-10T11:12:53.127Z,220.05
2019-02-10T11:15:23.737Z,269.67
2019-02-10T11:18:03.175Z,236.80
2019-02-10T11:20:38.660Z,235.53
2019-02-10T11:23:13.683Z,278.27
2019-02-10T11:25:48.946Z,260.67
2019-02-10T11:28:23.669Z,264.45
2019-02-10T11:30:59.355Z,266.57
2019-02-10T11:39:23.539Z,284.07
2019-02-10T11:41:58.738Z,328.10
2019-02-10T11:44:36.064Z,314.90
2019-02-10T11:47:23.485Z,327.80
2019-02-10T11:49:58.539Z,347.90
2019-02-10T11:52:37.988Z,337.23
2019-02-10T11:55:14.088Z,337.40
2019-02-10T11:57:50.957Z,335.60
2019-02-10T12:00:26.220Z,330.02
2019-02-10T12:03:01.062Z,340.77
2019-02-10T12:05:36.180Z,327.85
2019-02-10T12:08:17.746Z,326.37
2019-02-10T12:10:54.665Z,311.73
2019-02-10T12:13:31.445Z,329.87
2019-02-10T12:16:20.012Z,263.70
2019-02-10T12:18:51.927Z,236.33
2019-02-10T12:21:46.396Z,232.57
2019-02-10T12:24:22.051Z,235.87
2019-02-10T12:26:57.909Z,199.87
2019-02-10T12:29:38.984Z,226.63
2019-02-10T12:32:15.436Z,223.20
2019-02-10T12:34:50.862Z,228.03
2019-02-10T12:37:32.177Z,231.50
2019-02-10T12:40:02.412Z,213.53
2019-02-10T12:42:37.978Z,213.97
2019-02-10T12:45:17.725Z,208.53
2019-02-10T12:47:56.071Z,205.10
2019-02-10T12:50:31.323Z,214.80
2019-02-10T12:53:06.049Z,209.13
2019-02-10T12:55:44.140Z,195.20
2019-02-10T12:58:21.892Z,186.90
2019-02-10T13:00:59.928Z,182.97
2019-02-10T13:03:38.467Z,196.50
2019-02-10T13:06:11.436Z,204.27
2019-02-10T13:08:46.584Z,196.27
2019-02-10T13:11:21.796Z,191.20
2019-02-10T13:14:00.060Z,185.12
2019-02-10T13:16:35.447Z,179.17
2019-02-10T13:19:15.750Z,186.97
2019-02-10T13:21:51.162Z,198.28
2019-02-10T13:24:26.224Z,195.37
2019-02-10T13:27:05.021Z,230.03
2019-02-10T13:29:43.413Z,212.20
2019-02-10T13:32:21.274Z,226.67
2019-02-10T13:34:58.730Z,230.07
2019-02-10T13:37:38.948Z,246.53
2019-02-10T13:40:27.832Z,234.93
2019-02-10T13:43:03.718Z,239.37
2019-02-10T13:45:39.968Z,271.20
2019-02-10T13:48:16.146Z,253.33
2019-02-10T13:50:53.563Z,286.77
2019-02-10T13:53:29.177Z,250.43
2019-02-10T13:56:04.433Z,255.50
2019-02-10T13:58:49.904Z,259.93
2019-02-10T14:01:28.224Z,233.90
2019-02-10T14:04:08.943Z,244.23
2019-02-10T14:06:47.723Z,228.90
2019-02-10T14:09:23.667Z,238.73
2019-02-10T14:11:59.147Z,243.20
2019-02-10T14:14:47.895Z,264.10
2019-02-10T14:17:31.109Z,238.53
2019-02-10T14:20:06.173Z,253.93
2019-02-10T14:22:44.484Z,271.43
2019-02-10T14:25:21.702Z,249.60
2019-02-10T14:28:03.277Z,273.70
2019-02-10T14:30:44.293Z,243.48
2019-02-10T14:33:19.810Z,258.90
2019-02-10T14:35:57.257Z,245.07
2019-02-10T14:38:37.810Z,254.67
2019-02-10T14:41:12.401Z,251.67
2019-02-10T14:43:53.243Z,261.03
2019-02-10T14:46:30.670Z,278.13
2019-02-10T14:49:06.370Z,303.43
2019-02-10T14:51:46.914Z,375.93
2019-02-10T14:54:19.653Z,385.43
2019-02-10T14:56:54.699Z,411.50
2019-02-10T14:59:34.851Z,412.33
2019-02-10T15:02:08.926Z,427.43
2019-02-10T15:04:49.452Z,429.07
2019-02-10T15:07:49.503Z,420.67
2019-02-10T15:10:02.970Z,438.80
2019-02-10T15:12:38.404Z,447.00
2019-02-10T15:15:15.008Z,468.60
2019-02-10T15:17:50.161Z,432.03
2019-02-10T15:20:28.417Z,462.40
2019-02-10T15:23:03.533Z,413.37
2019-02-10T15:25:42.162Z,420.70
2019-02-10T15:28:22.602Z,419.20
2019-02-10T15:30:57.945Z,403.07
2019-02-10T15:33:32.918Z,393.42
2019-02-10T15:36:14.510Z,421.83
2019-02-10T15:38:47.087Z,410.50
2019-02-10T15:41:23.708Z,402.00
2019-02-10T15:44:00.697Z,398.40
2019-02-10T15:46:36.339Z,396.53
2019-02-10T15:49:17.449Z,363.20
2019-02-10T15:51:55.709Z,372.17
2019-02-10T15:54:40.385Z,333.07
2019-02-10T15:57:12.516Z,361.03
2019-02-10T15:59:48.933Z,389.67
2019-02-10T16:02:27.945Z,346.47
2019-02-10T16:05:11.563Z,383.97
2019-02-10T16:07:46.908Z,377.47
2019-02-10T16:10:24.339Z,343.37
2019-02-10T16:12:59.652Z,368.87
2019-02-10T16:15:43.872Z,353.90
2019-02-10T16:18:17.008Z,329.20
2019-02-10T16:21:04.350Z,329.07
2019-02-10T16:23:46.115Z,311.67
2019-02-10T16:26:23.950Z,291.00
2019-02-10T16:28:59.341Z,282.17
2019-02-10T16:31:35.501Z,262.17
2019-02-10T16:34:09.916Z,247.88
2019-02-10T16:36:49.931Z,274.67
2019-02-10T16:39:25.392Z,224.10
2019-02-10T16:44:57.796Z,194.57
2019-02-10T16:47:31.001Z,179.67
2019-02-10T16:50:17.850Z,175.97
2019-02-10T16:52:55.689Z,169.73
2019-02-10T16:55:41.289Z,187.97
2019-02-10T16:58:15.794Z,177.03
2019-02-10T17:00:59.168Z,191.28
2019-02-10T17:03:30.721Z,183.87
2019-02-10T17:06:10.634Z,174.37
2019-02-10T17:08:53.901Z,175.17
2019-02-10T17:11:21.776Z,174.53
2019-02-10T17:13:59.771Z,179.13
2019-02-10T17:16:38.919Z,177.40
2019-02-10T17:19:15.443Z,163.07
2019-02-10T17:21:52.813Z,166.37
2019-02-10T17:24:30.584Z,155.37
2019-02-10T17:27:09.808Z,150.73
2019-02-10T17:29:44.896Z,155.43
2019-02-10T17:32:22.027Z,168.00
2019-02-10T17:34:59.623Z,141.53
2019-02-10T17:37:32.825Z,151.97
2019-02-10T17:40:07.778Z,146.30
2019-02-10T17:43:07.759Z,134.53
2019-02-10T17:45:17.504Z,129.90
2019-02-10T17:47:54.882Z,149.23
2019-02-10T17:50:26.906Z,158.50
2019-02-10T17:53:08.291Z,141.57
2019-02-10T17:55:40.084Z,147.93
2019-02-10T17:58:14.467Z,133.73
2019-02-10T18:00:54.460Z,144.37
2019-02-10T18:03:32.333Z,142.63
2019-02-10T18:06:06.994Z,141.95
2019-02-10T18:08:46.204Z,136.70
2019-02-10T18:11:20.437Z,119.67
2019-02-10T18:13:54.630Z,133.95
2019-02-10T18:16:33.682Z,141.33
2019-02-10T18:19:16.689Z,125.33
2019-02-10T18:21:51.828Z,129.42
2019-02-10T18:24:26.151Z,109.85
2019-02-10T18:27:08.326Z,122.47
2019-02-10T18:29:41.716Z,135.63
2019-02-10T18:32:19.443Z,115.70
2019-02-10T18:34:54.354Z,111.23
2019-02-10T18:37:42.767Z,105.27
2019-02-10T18:40:10.988Z,111.90
2019-02-10T18:42:49.112Z,100.17
2019-02-10T18:45:28.408Z,111.50
2019-02-10T18:48:19.830Z,106.13
2019-02-10T18:51:01.432Z,91.43
2019-02-10T18:53:40.696Z,98.17
2019-02-10T18:56:20.033Z,94.67
2019-02-10T18:58:54.345Z,106.83
2019-02-10T19:01:50.441Z,104.47
2019-02-10T19:04:27.180Z,92.07
2019-02-10T19:07:13.220Z,88.07
2019-02-10T19:09:47.720Z,98.47
2019-02-10T19:12:26.605Z,97.20
2019-02-10T19:15:20.159Z,93.53
2019-02-10T19:17:34.524Z,97.70
2019-02-10T19:20:21.301Z,101.37
2019-02-10T19:23:02.632Z,102.23
2019-02-10T19:25:43.484Z,99.60
2019-02-10T19:28:18.855Z,94.67
2019-02-10T19:30:50.866Z,90.67
2019-02-10T19:33:28.750Z,84.47
2019-02-10T19:36:05.459Z,81.77
2019-02-10T19:38:40.608Z,84.47
2019-02-10T19:41:14.985Z,78.87
2019-02-10T19:43:56.356Z,91.50
2019-02-10T19:46:28.928Z,80.73
2019-02-10T19:49:08.164Z,75.17
2019-02-10T19:51:54.635Z,83.70
2019-02-10T19:54:26.741Z,84.43
2019-02-10T19:57:06.132Z,86.70
2019-02-10T19:59:38.574Z,74.47
2019-02-10T20:02:15.729Z,89.73
2019-02-10T20:04:53.436Z,101.75
2019-02-10T20:07:38.621Z,89.50
2019-02-10T20:10:03.367Z,85.90
2019-02-10T20:12:43.357Z,99.13
2019-02-10T20:15:19.984Z,81.40
2019-02-10T20:17:57.502Z,99.67
2019-02-10T20:20:33.589Z,92.37
2019-02-10T20:23:14.450Z,86.73
2019-02-10T20:25:48.901Z,89.10
2019-02-10T20:28:32.293Z,77.03
2019-02-10T20:31:09.878Z,72.20
2019-02-10T20:33:47.601Z,92.57
2019-02-10T20:36:34.090Z,88.60
2019-02-10T20:38:57.347Z,85.33
2019-02-10T20:41:31.650Z,82.57
2019-02-10T20:44:06.188Z,101.63
2019-02-10T20:46:40.515Z,79.50
2019-02-10T20:49:15.019Z,86.27
2019-02-10T20:51:49.607Z,78.43
2019-02-10T20:54:24.182Z,66.17
2019-02-10T20:57:01.931Z,68.80
2019-02-10T20:59:36.671Z,81.93
2019-02-10T21:02:11.112Z,72.57
2019-02-10T21:04:47.110Z,64.93
2019-02-10T21:07:21.526Z,63.60
2019-02-10T21:09:56.100Z,66.57
2019-02-10T21:12:30.395Z,68.12
2019-02-10T21:15:04.627Z,70.93
2019-02-10T21:17:40.453Z,74.13
2019-02-10T21:20:14.667Z,73.50
2019-02-10T21:22:48.980Z,61.80
2019-02-10T21:25:23.102Z,61.63
2019-02-10T21:27:57.295Z,64.17
2019-02-10T21:30:31.605Z,69.20
2019-02-10T21:33:05.699Z,63.50
2019-02-10T21:35:42.523Z,65.63
2019-02-10T21:38:16.814Z,59.40
2019-02-10T21:40:52.632Z,78.60
2019-02-10T21:43:26.635Z,59.10
2019-02-10T21:46:00.602Z,74.40
2019-02-10T21:48:54.493Z,65.37
2019-02-10T21:51:28.166Z,74.63
2019-02-10T21:54:01.793Z,66.30
2019-02-10T21:56:36.735Z,63.77
2019-02-10T21:59:10.405Z,72.00
2019-02-10T22:02:03.452Z,69.70
2019-02-10T22:04:36.953Z,72.07
2019-02-10T22:07:10.958Z,65.37
2019-02-10T22:09:44.596Z,68.73
2019-02-10T22:12:19.528Z,74.87
2019-02-10T22:14:53.684Z,80.10
2019-02-10T22:17:27.361Z,71.00
2019-02-10T22:20:00.829Z,64.53
2019-02-10T22:22:34.434Z,72.78
2019-02-10T22:25:10.902Z,76.28
2019-02-10T22:27:44.657Z,71.70
2019-02-10T22:30:19.432Z,74.70
2019-02-10T22:32:52.963Z,82.00
2019-02-10T22:35:28.188Z,75.53
2019-02-10T22:38:03.380Z,67.97
2019-02-10T22:40:37.053Z,60.60
2019-02-10T22:43:11.184Z,74.70
2019-02-10T22:45:45.417Z,79.47
2019-02-10T22:48:19.853Z,68.50
2019-02-10T22:50:53.417Z,66.93
2019-02-10T22:53:27.652Z,72.63
2019-02-10T22:56:01.110Z,75.97
2019-02-10T22:58:34.698Z,77.87
2019-02-10T23:01:09.737Z,79.25
2019-02-10T23:03:43.691Z,63.33
2019-02-10T23:06:23.634Z,69.60
2019-02-10T23:08:57.406Z,82.43
2019-02-10T23:11:30.986Z,71.07
2019-02-10T23:14:06.860Z,62.37
2019-02-10T23:16:41.276Z,61.50
2019-02-10T23:19:15.024Z,66.20
2019-02-10T23:21:48.580Z,57.70
2019-02-10T23:24:22.179Z,83.67
2019-02-10T23:26:55.952Z,63.10
2019-02-10T23:29:29.589Z,69.80
2019-02-10T23:32:03.090Z,69.10
2019-02-10T23:34:36.852Z,81.03
2019-02-10T23:37:10.534Z,58.10
2019-02-10T23:40:04.858Z,63.03
2019-02-10T23:42:39.366Z,62.97
2019-02-10T23:45:14.886Z,69.17
2019-02-10T23:47:50.884Z,59.70
2019-02-10T23:50:24.708Z,69.85
2019-02-10T23:52:58.329Z,80.77
2019-02-10T23:55:31.899Z,73.17
2019-02-10T23:58:05.718Z,71.95
